Aqua Bob — WD19623 — position and weather

sailwx.info

Track history (hours):
 
Tides and Currents Weather Stations Pressure Air Temp Water Temp Dewpoint Dewpoint Depression Visibility Wind Speed Wind Dir Waves Ship Positions

Aqua Bob

Last reported at 2017-Nov-24 18:26 UTC. Time now 2017-Dec-13 13:11 UTC.
Position N 25°59' W 079°43'.
Warning: this ship's position is 18 days out of date.

Length 16 m.

Type: Sailing vessel. MMSI: 367750540.

Date/timePositionNaut miles runAvg speedWind from/ knotsBaromVisibWave heightAir tempDewpointWater temp
2017-Nov-24 18:26N 25°59' W 079°43'3 6.5
2017-Nov-24 17:56N 25°60' W 079°46'3 6.3
2017-Nov-24 17:28N 26°01' W 079°50'3 6.6
2017-Nov-24 16:58N 26°02' W 079°53'4 6.9
2017-Nov-24 16:27N 26°03' W 079°57'4 7.4
2017-Nov-24 15:56N 26°04' W 080°01'4 7.3
2017-Nov-24 15:26N 26°05' W 080°05'3 5.0
2017-Nov-24 14:56N 26°07' W 080°07'1 1.2
2017-Nov-24 14:19N 26°07' W 080°07'0 0.0
2017-Nov-23 21:17N 26°07' W 080°06'0 0.5
2017-Nov-23 20:55N 26°08' W 080°06'3 5.1
2017-Nov-23 20:25N 26°05' W 080°07'2 4.3
2017-Nov-23 20:00N 26°04' W 080°08'  
2017-Nov-19 20:34N 26°06' W 080°07'0 0.6
2017-Nov-19 20:30N 26°06' W 080°07'0 0.9
2017-Nov-19 19:57N 26°06' W 080°07'2 4.1
2017-Nov-19 19:26N 26°07' W 080°05'3 6.3
2017-Nov-19 18:56N 26°10' W 080°05'3 6.8
2017-Nov-19 18:26N 26°14' W 080°04'4 7.6
2017-Nov-19 17:54N 26°18' W 080°04'4 7.6
2017-Nov-19 17:24N 26°21' W 080°03'12 6.9
2017-Nov-19 15:38N 26°33' W 080°01'1 8.1
2017-Nov-19 15:30N 26°35' W 080°01'5 9.1
2017-Nov-19 15:00N 26°39' W 080°01'4 8.3
2017-Nov-19 14:30N 26°43' W 080°01'3 6.0
2017-Nov-19 13:59N 26°46' W 080°02'1 1.8
2017-Nov-19 13:18N 26°46' W 080°03'0 0.0
2017-Nov-18 22:32N 26°46' W 080°03'0 0.4
2017-Nov-18 22:29N 26°46' W 080°03'1 1.2
2017-Nov-18 22:00N 26°46' W 080°03'6 5.7
2017-Nov-18 20:58N 26°52' W 080°01'3 6.3
2017-Nov-18 20:30N 26°55' W 080°02'3 6.6
2017-Nov-18 20:00N 26°58' W 080°03'  
2017-Nov-16 14:56N 32°28' W 079°59'3 6.6
2017-Nov-16 14:30N 32°31' W 079°57'3 6.6
2017-Nov-16 14:00N 32°33' W 079°54'3 6.9
2017-Nov-16 13:30N 32°36' W 079°52'4 7.0
2017-Nov-16 13:00N 32°39' W 079°50'3 6.0
2017-Nov-16 12:30N 32°42' W 079°49'5 5.1
2017-Nov-16 11:29N 32°46' W 079°53'2 4.5
2017-Nov-16 11:00N 32°46' W 079°55'0 0.0
2017-Nov-15 18:02N 32°46' W 079°55'0 0.4
2017-Nov-15 18:00N 32°46' W 079°55'1 2.9
2017-Nov-15 17:30N 32°46' W 079°54'2 4.2
2017-Nov-15 17:00N 32°45' W 079°52'0 0.8
2017-Nov-15 16:30N 32°45' W 079°51'4 7.7
2017-Nov-15 16:00N 32°47' W 079°55'1 0.1
2017-Nov-14 22:35N 32°46' W 079°55'0 0.0
2017-Nov-14 22:29N 32°46' W 079°55'3 5.8
2017-Nov-14 22:00N 32°49' W 079°54'  
Track history (hours):
 
Tides and Currents Weather Stations Pressure Air Temp Water Temp Dewpoint Dewpoint Depression Visibility Wind Speed Wind Dir Waves Ship Positions

Aqua Bob

Last reported at 2017-Nov-24 18:26 UTC. Time now 2017-Dec-13 13:11 UTC.
Position N 25°59' W 079°43'.
Warning: this ship's position is 18 days out of date.

Length 16 m.

Type: Sailing vessel. MMSI: 367750540.

Date/timePositionNaut miles runAvg speedWind from/ knotsBaromVisibWave heightAir tempDewpointWater temp
2017-Nov-24 18:26N 25°59' W 079°43'3 6.5
2017-Nov-24 17:56N 25°60' W 079°46'3 6.3
2017-Nov-24 17:28N 26°01' W 079°50'3 6.6
2017-Nov-24 16:58N 26°02' W 079°53'4 6.9
2017-Nov-24 16:27N 26°03' W 079°57'4 7.4
2017-Nov-24 15:56N 26°04' W 080°01'4 7.3
2017-Nov-24 15:26N 26°05' W 080°05'3 5.0
2017-Nov-24 14:56N 26°07' W 080°07'1 1.2
2017-Nov-24 14:19N 26°07' W 080°07'0 0.0
2017-Nov-23 21:17N 26°07' W 080°06'0 0.5
2017-Nov-23 20:55N 26°08' W 080°06'3 5.1
2017-Nov-23 20:25N 26°05' W 080°07'2 4.3
2017-Nov-23 20:00N 26°04' W 080°08'  
2017-Nov-19 20:34N 26°06' W 080°07'0 0.6
2017-Nov-19 20:30N 26°06' W 080°07'0 0.9
2017-Nov-19 19:57N 26°06' W 080°07'2 4.1
2017-Nov-19 19:26N 26°07' W 080°05'3 6.3
2017-Nov-19 18:56N 26°10' W 080°05'3 6.8
2017-Nov-19 18:26N 26°14' W 080°04'4 7.6
2017-Nov-19 17:54N 26°18' W 080°04'4 7.6
2017-Nov-19 17:24N 26°21' W 080°03'12 6.9
2017-Nov-19 15:38N 26°33' W 080°01'1 8.1
2017-Nov-19 15:30N 26°35' W 080°01'5 9.1
2017-Nov-19 15:00N 26°39' W 080°01'4 8.3
2017-Nov-19 14:30N 26°43' W 080°01'3 6.0
2017-Nov-19 13:59N 26°46' W 080°02'1 1.8
2017-Nov-19 13:18N 26°46' W 080°03'0 0.0
2017-Nov-18 22:32N 26°46' W 080°03'0 0.4
2017-Nov-18 22:29N 26°46' W 080°03'1 1.2
2017-Nov-18 22:00N 26°46' W 080°03'6 5.7
2017-Nov-18 20:58N 26°52' W 080°01'3 6.3
2017-Nov-18 20:30N 26°55' W 080°02'3 6.6
2017-Nov-18 20:00N 26°58' W 080°03'  
2017-Nov-16 14:56N 32°28' W 079°59'3 6.6
2017-Nov-16 14:30N 32°31' W 079°57'3 6.6
2017-Nov-16 14:00N 32°33' W 079°54'3 6.9
2017-Nov-16 13:30N 32°36' W 079°52'4 7.0
2017-Nov-16 13:00N 32°39' W 079°50'3 6.0
2017-Nov-16 12:30N 32°42' W 079°49'5 5.1
2017-Nov-16 11:29N 32°46' W 079°53'2 4.5
2017-Nov-16 11:00N 32°46' W 079°55'0 0.0
2017-Nov-15 18:02N 32°46' W 079°55'0 0.4
2017-Nov-15 18:00N 32°46' W 079°55'1 2.9
2017-Nov-15 17:30N 32°46' W 079°54'2 4.2
2017-Nov-15 17:00N 32°45' W 079°52'0 0.8
2017-Nov-15 16:30N 32°45' W 079°51'4 7.7
2017-Nov-15 16:00N 32°47' W 079°55'1 0.1
2017-Nov-14 22:35N 32°46' W 079°55'0 0.0
2017-Nov-14 22:29N 32°46' W 079°55'3 5.8
2017-Nov-14 22:00N 32°49' W 079°54'  

Dump ship's entire track history